createdAt,value
2019-04-23T00:01:07.829Z,3.20
2019-04-23T00:02:29.806Z,3.60
2019-04-23T00:03:40.408Z,3.30
2019-04-23T00:04:45.554Z,3.60
2019-04-23T00:06:15.095Z,3.10
2019-04-23T00:08:09.581Z,3.33
2019-04-23T00:09:27.698Z,2.97
2019-04-23T00:11:37.441Z,3.27
2019-04-23T00:13:44.259Z,3.27
2019-04-23T00:14:57.738Z,3.97
2019-04-23T00:16:21.795Z,3.13
2019-04-23T00:17:19.291Z,3.13
2019-04-23T00:18:28.291Z,3.50
2019-04-23T00:19:24.671Z,3.17
2019-04-23T00:20:34.548Z,3.03
2019-04-23T00:21:49.405Z,3.30
2019-04-23T00:23:11.429Z,3.00
2019-04-23T00:25:09.734Z,2.93
2019-04-23T00:26:05.785Z,3.27
2019-04-23T00:27:17.008Z,3.17
2019-04-23T00:29:29.147Z,3.70
2019-04-23T00:30:36.229Z,3.60
2019-04-23T00:31:41.315Z,3.20
2019-04-23T00:32:42.619Z,3.63
2019-04-23T00:33:52.725Z,3.30
2019-04-23T00:36:06.376Z,3.17
2019-04-23T00:37:18.785Z,3.10
2019-04-23T00:39:23.259Z,3.00
2019-04-23T00:41:44.241Z,3.10
2019-04-23T00:43:04.032Z,3.33
2019-04-23T00:44:02.721Z,3.30
2019-04-23T00:45:16.662Z,3.77
2019-04-23T00:46:11.385Z,3.57
2019-04-23T00:47:23.138Z,3.37
2019-04-23T00:48:28.258Z,3.10
2019-04-23T00:49:37.107Z,3.50
2019-04-23T00:50:44.949Z,3.20
2019-04-23T00:51:45.646Z,3.37
2019-04-23T00:52:55.104Z,3.30
2019-04-23T00:54:02.674Z,3.70
2019-04-23T00:55:10.615Z,3.23
2019-04-23T00:57:24.216Z,3.43
2019-04-23T00:58:29.076Z,3.60
2019-04-23T00:59:39.112Z,3.40
2019-04-23T01:00:49.005Z,4.10
2019-04-23T01:01:49.687Z,3.47
2019-04-23T01:02:59.002Z,4.03
2019-04-23T01:03:58.305Z,3.43
2019-04-23T01:05:10.337Z,3.40
2019-04-23T01:06:21.277Z,3.67
2019-04-23T01:07:29.201Z,3.20
2019-04-23T01:08:33.261Z,3.73
2019-04-23T01:09:45.845Z,3.67
2019-04-23T01:12:20.601Z,3.70
2019-04-23T01:13:26.915Z,3.70
2019-04-23T01:14:26.166Z,3.40
2019-04-23T01:16:40.987Z,4.00
2019-04-23T01:17:54.533Z,3.37
2019-04-23T01:19:21.232Z,3.40
2019-04-23T01:20:08.449Z,3.83
2019-04-23T01:21:03.424Z,3.37
2019-04-23T01:22:10.943Z,3.30
2019-04-23T01:23:40.632Z,3.20
2019-04-23T01:24:50.818Z,3.47
2019-04-23T01:26:13.313Z,3.20
2019-04-23T01:29:03.412Z,3.33
2019-04-23T01:30:09.542Z,3.60
2019-04-23T01:31:18.138Z,3.60
2019-04-23T01:32:20.776Z,3.67
2019-04-23T01:33:35.537Z,3.47
2019-04-23T01:35:03.881Z,4.17
2019-04-23T01:35:41.382Z,4.00
2019-04-23T01:36:54.523Z,3.60
2019-04-23T01:37:50.608Z,3.67
2019-04-23T01:39:00.386Z,3.73
2019-04-23T01:40:12.096Z,3.93
2019-04-23T01:41:20.647Z,3.90
2019-04-23T01:42:29.023Z,3.87
2019-04-23T01:43:30.723Z,3.90
2019-04-23T01:44:43.962Z,3.80
2019-04-23T01:45:47.957Z,3.77
2019-04-23T01:47:59.719Z,3.83
2019-04-23T01:49:07.787Z,3.80
2019-04-23T01:50:20.094Z,3.90
2019-04-23T01:51:22.498Z,4.07
2019-04-23T01:52:31.707Z,3.50
2019-04-23T01:53:36.976Z,3.73
2019-04-23T01:54:48.406Z,4.07
2019-04-23T01:55:46.740Z,4.23
2019-04-23T01:56:54.785Z,4.03
2019-04-23T01:58:23.899Z,4.20
2019-04-23T01:59:11.124Z,4.13
2019-04-23T02:01:29.535Z,4.00
2019-04-23T02:02:41.237Z,4.53
2019-04-23T02:03:42.838Z,4.60
2019-04-23T02:04:44.554Z,4.77
2019-04-23T02:05:58.314Z,4.73
2019-04-23T02:07:05.771Z,4.20
2019-04-23T02:08:07.796Z,4.83
2019-04-23T02:09:12.740Z,4.10
2019-04-23T02:10:32.864Z,4.80
2019-04-23T02:11:43.608Z,4.30
2019-04-23T02:12:42.284Z,4.63
2019-04-23T02:13:42.054Z,4.70
2019-04-23T02:14:49.913Z,4.70
2019-04-23T02:15:53.380Z,4.13
2019-04-23T02:17:01.207Z,4.80
2019-04-23T02:18:13.283Z,4.90
2019-04-23T02:20:33.202Z,4.97
2019-04-23T02:21:41.391Z,5.07
2019-04-23T02:23:21.548Z,5.10
2019-04-23T02:24:12.122Z,5.33
2019-04-23T02:25:41.056Z,5.13
2019-04-23T02:26:33.927Z,5.23
2019-04-23T02:27:42.467Z,5.10
2019-04-23T02:30:05.824Z,5.27
2019-04-23T02:31:35.795Z,4.83
2019-04-23T02:32:16.192Z,5.17
2019-04-23T02:36:48.740Z,5.40
2019-04-23T02:38:55.969Z,5.30
2019-04-23T02:41:08.569Z,6.00
2019-04-23T02:42:28.624Z,5.80
2019-04-23T02:45:52.051Z,6.10
2019-04-23T02:46:51.698Z,6.03
2019-04-23T02:48:01.801Z,5.63
2019-04-23T02:49:12.567Z,6.20
2019-04-23T02:50:24.929Z,6.17
2019-04-23T02:51:20.787Z,6.00
2019-04-23T02:52:21.699Z,6.33
2019-04-23T02:53:38.904Z,6.70
2019-04-23T02:54:44.211Z,6.30
2019-04-23T02:56:04.412Z,6.63
2019-04-23T02:59:10.871Z,6.60
2019-04-23T03:00:28.106Z,6.80
2019-04-23T03:03:42.342Z,7.47
2019-04-23T03:04:40.063Z,7.23
2019-04-23T03:05:49.281Z,6.80
2019-04-23T03:06:58.533Z,6.53
2019-04-23T03:09:22.280Z,6.30
2019-04-23T03:13:51.048Z,6.63
2019-04-23T03:16:31.814Z,7.00
2019-04-23T03:17:15.051Z,6.60
2019-04-23T03:21:26.177Z,6.47
2019-04-23T03:22:56.982Z,6.90
2019-04-23T03:25:35.682Z,7.30
2019-04-23T03:27:10.307Z,7.00
2019-04-23T03:27:50.835Z,7.50
2019-04-23T03:29:13.340Z,7.20
2019-04-23T03:32:51.890Z,6.90
2019-04-23T03:38:16.532Z,7.77
2019-04-23T03:39:25.542Z,6.80
2019-04-23T03:40:12.034Z,7.27
2019-04-23T03:42:23.894Z,7.30
2019-04-23T03:46:04.288Z,7.20
2019-04-23T03:46:51.805Z,7.17
2019-04-23T03:48:08.005Z,7.33
2019-04-23T03:49:21.396Z,7.07
2019-04-23T03:51:31.356Z,7.30
2019-04-23T03:52:38.717Z,7.60
2019-04-23T03:53:44.804Z,7.70
2019-04-23T03:55:58.260Z,7.47
2019-04-23T03:58:12.139Z,7.27
2019-04-23T03:59:20.431Z,8.03
2019-04-23T04:04:45.063Z,7.70
2019-04-23T04:06:20.922Z,8.23
2019-04-23T04:07:20.035Z,7.97
2019-04-23T04:10:18.121Z,7.53
2019-04-23T04:11:27.576Z,8.20
2019-04-23T04:12:34.858Z,7.47
2019-04-23T04:14:57.599Z,7.80
2019-04-23T04:17:09.473Z,7.43
2019-04-23T04:19:32.418Z,8.03
2019-04-23T04:21:33.768Z,7.53
2019-04-23T04:22:50.052Z,8.03
2019-04-23T04:24:05.255Z,7.57
2019-04-23T04:24:48.658Z,8.57
2019-04-23T04:27:27.074Z,7.63
2019-04-23T04:28:21.130Z,7.73
2019-04-23T04:29:36.800Z,8.40
2019-04-23T04:31:43.032Z,8.27
2019-04-23T04:32:49.335Z,8.33
2019-04-23T04:37:37.792Z,8.47
2019-04-23T04:38:36.322Z,8.60
2019-04-23T04:39:26.878Z,8.20
2019-04-23T04:41:40.457Z,8.50
2019-04-23T04:42:54.473Z,9.37
2019-04-23T04:44:07.262Z,8.67
2019-04-23T04:47:25.779Z,9.33
2019-04-23T04:48:22.994Z,9.00
2019-04-23T04:49:45.393Z,8.70
2019-04-23T04:50:43.306Z,9.20
2019-04-23T04:54:09.773Z,9.37
2019-04-23T04:55:05.279Z,9.77
2019-04-23T04:57:29.790Z,9.17
2019-04-23T04:58:32.254Z,9.50
2019-04-23T04:59:51.147Z,9.70
2019-04-23T05:00:57.059Z,9.07
2019-04-23T05:03:12.653Z,9.90
2019-04-23T05:03:59.947Z,9.10
2019-04-23T05:05:20.443Z,9.77
2019-04-23T05:06:24.356Z,9.67
2019-04-23T05:07:27.642Z,8.80
2019-04-23T05:08:36.800Z,9.33
2019-04-23T05:09:48.586Z,9.40
2019-04-23T05:10:51.883Z,9.40
2019-04-23T05:13:13.788Z,9.80
2019-04-23T05:14:25.225Z,10.00
2019-04-23T05:15:25.440Z,9.70
2019-04-23T05:16:24.292Z,10.00
2019-04-23T05:19:29.736Z,9.20
2019-04-23T05:20:32.951Z,9.80
2019-04-23T05:21:43.526Z,10.30
2019-04-23T05:23:50.343Z,9.23
2019-04-23T05:24:46.591Z,9.23
2019-04-23T05:25:58.803Z,9.70
2019-04-23T05:27:04.702Z,9.87
2019-04-23T05:30:34.991Z,10.07
2019-04-23T05:31:29.366Z,9.63
2019-04-23T05:32:43.255Z,10.70
2019-04-23T05:33:46.345Z,10.50
2019-04-23T05:34:58.674Z,10.03
2019-04-23T05:36:13.101Z,10.23
2019-04-23T05:37:06.398Z,10.23
2019-04-23T05:40:42.832Z,10.40
2019-04-23T05:44:59.146Z,9.73
2019-04-23T05:46:09.766Z,9.50
2019-04-23T05:47:19.118Z,10.30
2019-04-23T05:48:20.087Z,9.67
2019-04-23T05:49:27.987Z,9.80
2019-04-23T05:51:44.550Z,10.33
2019-04-23T05:52:58.077Z,9.90
2019-04-23T05:54:08.422Z,9.80
2019-04-23T05:55:05.194Z,9.80
2019-04-23T05:56:09.459Z,9.63
2019-04-23T05:57:14.009Z,9.50
2019-04-23T05:58:23.197Z,10.00
2019-04-23T06:00:41.352Z,9.47
2019-04-23T06:04:05.299Z,9.20
2019-04-23T06:05:04.184Z,9.53
2019-04-23T06:06:11.281Z,9.90
2019-04-23T06:08:41.022Z,8.90
2019-04-23T06:09:41.748Z,9.50
2019-04-23T06:10:42.146Z,9.57
2019-04-23T06:12:52.096Z,9.57
2019-04-23T06:14:09.766Z,9.07
2019-04-23T06:15:11.509Z,9.63
2019-04-23T06:16:22.273Z,9.47
2019-04-23T06:17:24.229Z,9.13
2019-04-23T06:18:30.417Z,9.13
2019-04-23T06:19:30.498Z,8.73
2019-04-23T06:20:48.800Z,9.27
2019-04-23T06:23:01.044Z,9.30
2019-04-23T06:24:09.832Z,9.27
2019-04-23T06:25:22.086Z,9.63
2019-04-23T06:26:25.421Z,9.03
2019-04-23T06:28:31.758Z,8.97
2019-04-23T06:29:52.866Z,9.33
2019-04-23T06:30:50.492Z,9.10
2019-04-23T06:31:55.236Z,9.90
2019-04-23T06:32:59.346Z,9.20
2019-04-23T06:34:12.280Z,9.40
2019-04-23T06:35:09.982Z,9.50
2019-04-23T06:38:53.399Z,9.03
2019-04-23T06:39:55.651Z,9.00
2019-04-23T06:40:47.394Z,8.97
2019-04-23T06:41:55.045Z,9.40
2019-04-23T06:43:05.310Z,8.83
2019-04-23T06:45:27.742Z,9.10
2019-04-23T06:46:37.375Z,9.73
2019-04-23T06:47:35.348Z,10.10
2019-04-23T06:48:49.128Z,9.57
2019-04-23T06:49:55.361Z,9.00
2019-04-23T06:51:09.214Z,9.47
2019-04-23T06:52:15.040Z,9.30
2019-04-23T06:53:07.041Z,9.40
2019-04-23T06:54:24.446Z,9.10
2019-04-23T06:55:31.895Z,9.23
2019-04-23T06:56:43.325Z,10.07
2019-04-23T06:57:38.519Z,8.50
2019-04-23T06:58:48.864Z,8.93
2019-04-23T06:59:55.546Z,9.27
2019-04-23T07:04:25.953Z,8.70
2019-04-23T07:06:03.769Z,9.23
2019-04-23T07:08:02.852Z,9.00
2019-04-23T07:10:19.823Z,8.03
2019-04-23T07:11:29.815Z,9.30
2019-04-23T07:12:35.138Z,9.23
2019-04-23T07:14:51.523Z,9.30
2019-04-23T07:15:55.247Z,9.20
2019-04-23T07:16:58.488Z,9.43
2019-04-23T07:18:07.538Z,9.80
2019-04-23T07:19:39.247Z,9.00
2019-04-23T07:20:20.843Z,10.17
2019-04-23T07:21:45.936Z,9.20
2019-04-23T07:22:45.660Z,9.17
2019-04-23T07:23:54.580Z,9.70
2019-04-23T07:24:47.352Z,9.60
2019-04-23T07:26:02.493Z,9.70
2019-04-23T07:27:01.310Z,9.80
2019-04-23T07:28:13.227Z,9.20
2019-04-23T07:29:18.951Z,9.47
2019-04-23T07:30:46.398Z,9.70
2019-04-23T07:31:35.072Z,9.57
2019-04-23T07:32:35.880Z,9.83
2019-04-23T07:33:52.795Z,9.37
2019-04-23T07:34:57.422Z,9.00
2019-04-23T07:36:06.996Z,9.20
2019-04-23T07:37:09.090Z,10.13
2019-04-23T07:38:42.424Z,9.30
2019-04-23T07:40:50.087Z,10.00
2019-04-23T07:43:34.605Z,9.77
2019-04-23T07:44:57.937Z,9.17
2019-04-23T07:46:16.849Z,9.47
2019-04-23T07:47:51.919Z,10.17
2019-04-23T07:48:37.201Z,9.20
2019-04-23T07:50:07.995Z,9.37
2019-04-23T07:50:55.169Z,9.37
2019-04-23T07:52:12.959Z,10.63
2019-04-23T07:54:22.747Z,9.90
2019-04-23T07:56:27.906Z,8.97
2019-04-23T07:57:35.342Z,10.13
2019-04-23T07:58:39.858Z,9.50
2019-04-23T07:59:58.978Z,9.23
2019-04-23T08:02:10.991Z,10.70
2019-04-23T08:04:18.225Z,10.33
2019-04-23T08:05:31.991Z,9.10
2019-04-23T08:06:32.728Z,10.33
2019-04-23T08:07:42.320Z,10.30
2019-04-23T08:08:52.569Z,10.47
2019-04-23T08:09:53.618Z,9.97
2019-04-23T08:12:25.229Z,10.07
2019-04-23T08:13:37.799Z,10.17
2019-04-23T08:14:32.773Z,9.93
2019-04-23T08:15:36.740Z,10.33
2019-04-23T08:16:40.567Z,10.13
2019-04-23T08:17:50.214Z,9.27
2019-04-23T08:20:09.485Z,10.63
2019-04-23T08:21:27.574Z,9.20
2019-04-23T08:22:35.598Z,9.73
2019-04-23T08:23:42.552Z,10.53
2019-04-23T08:25:03.314Z,9.87
2019-04-23T08:26:26.758Z,9.73
2019-04-23T08:28:49.928Z,9.87
2019-04-23T08:29:47.749Z,10.07
2019-04-23T08:31:03.622Z,10.53
2019-04-23T08:33:10.899Z,10.83
2019-04-23T08:34:31.175Z,10.53
2019-04-23T08:35:27.056Z,10.30
2019-04-23T08:36:40.735Z,10.73
2019-04-23T08:37:54.226Z,9.80
2019-04-23T08:38:57.033Z,9.70
2019-04-23T08:39:52.483Z,9.17
2019-04-23T08:41:10.552Z,9.50
2019-04-23T08:42:30.321Z,9.43
2019-04-23T08:44:56.927Z,10.63
2019-04-23T08:46:33.541Z,9.97
2019-04-23T08:47:42.206Z,10.37
2019-04-23T08:48:51.852Z,9.97
2019-04-23T08:49:50.552Z,9.83
2019-04-23T08:51:11.278Z,10.87
2019-04-23T08:52:15.188Z,10.40
2019-04-23T08:54:36.510Z,9.37
2019-04-23T08:55:38.791Z,9.53
2019-04-23T08:56:47.927Z,10.33
2019-04-23T08:57:52.074Z,9.57
2019-04-23T08:59:02.403Z,10.27
2019-04-23T09:00:05.964Z,10.60
2019-04-23T09:02:30.892Z,10.23
2019-04-23T09:03:31.184Z,10.30
2019-04-23T09:04:40.071Z,9.53
2019-04-23T09:05:53.101Z,10.87
2019-04-23T09:06:52.873Z,10.57
2019-04-23T09:09:10.420Z,10.30
2019-04-23T09:10:20.855Z,10.50
2019-04-23T09:11:35.808Z,9.67
2019-04-23T09:12:28.557Z,10.00
2019-04-23T09:14:42.184Z,10.97
2019-04-23T09:15:51.502Z,10.23
2019-04-23T09:16:58.294Z,9.87
2019-04-23T09:18:03.003Z,10.53
2019-04-23T09:21:21.286Z,9.83
2019-04-23T09:27:03.978Z,10.63
2019-04-23T09:28:07.417Z,9.83
2019-04-23T09:29:12.025Z,9.87
2019-04-23T09:30:18.827Z,10.50
2019-04-23T09:33:28.743Z,9.67
2019-04-23T09:34:52.981Z,10.53
2019-04-23T09:36:13.645Z,10.10
2019-04-23T09:37:41.958Z,10.30
2019-04-23T09:39:10.082Z,10.10
2019-04-23T09:40:18.982Z,9.47
2019-04-23T09:41:27.399Z,10.40
2019-04-23T09:43:00.554Z,10.10
2019-04-23T09:44:47.907Z,10.23
2019-04-23T09:46:11.173Z,10.90
2019-04-23T09:47:41.416Z,10.27
2019-04-23T09:48:49.373Z,11.30
2019-04-23T09:49:50.512Z,10.47
2019-04-23T09:50:56.175Z,10.57
2019-04-23T09:52:11.153Z,11.03
2019-04-23T09:53:20.565Z,10.97
2019-04-23T09:54:16.295Z,10.07
2019-04-23T09:55:32.452Z,10.53
2019-04-23T09:56:37.903Z,11.10
2019-04-23T09:57:44.950Z,10.03
2019-04-23T09:58:41.905Z,10.90
2019-04-23T10:02:30.925Z,10.37
2019-04-23T10:03:34.011Z,11.63
2019-04-23T10:04:39.849Z,11.40
2019-04-23T10:05:40.028Z,10.17
2019-04-23T10:06:45.163Z,11.53
2019-04-23T10:07:54.753Z,10.50
2019-04-23T10:08:55.641Z,10.80
2019-04-23T10:09:59.541Z,11.07
2019-04-23T10:11:07.238Z,10.40
2019-04-23T10:12:13.188Z,12.57
2019-04-23T10:13:19.991Z,11.63
2019-04-23T10:14:28.495Z,11.63
2019-04-23T10:15:39.035Z,11.00
2019-04-23T10:16:41.290Z,10.30
2019-04-23T10:17:46.730Z,11.70
2019-04-23T10:18:53.097Z,11.10
2019-04-23T10:20:00.590Z,10.40
2019-04-23T10:21:07.604Z,11.23
2019-04-23T10:22:13.345Z,10.93
2019-04-23T10:23:19.005Z,10.57
2019-04-23T10:24:27.663Z,11.00
2019-04-23T10:25:34.042Z,11.20
2019-04-23T10:26:39.925Z,10.83
2019-04-23T10:27:46.454Z,10.97
2019-04-23T10:29:00.149Z,11.27
2019-04-23T10:30:06.092Z,11.10
2019-04-23T10:31:12.610Z,11.67
2019-04-23T10:32:17.985Z,11.10
2019-04-23T10:33:23.625Z,10.93
2019-04-23T10:34:30.498Z,11.77
2019-04-23T10:35:45.993Z,11.60
2019-04-23T10:36:44.188Z,11.53
2019-04-23T10:37:56.836Z,11.47
2019-04-23T10:39:06.234Z,12.10
2019-04-23T10:40:07.979Z,12.23
2019-04-23T10:41:12.030Z,12.60
2019-04-23T10:42:18.235Z,12.13
2019-04-23T10:43:24.858Z,11.97
2019-04-23T10:44:37.365Z,10.93
2019-04-23T10:46:29.621Z,12.20
2019-04-23T10:48:12.396Z,12.03
2019-04-23T10:52:06.990Z,12.87
2019-04-23T10:53:18.825Z,12.47
2019-04-23T10:55:27.966Z,12.40
2019-04-23T10:56:36.231Z,11.77
2019-04-23T10:57:44.138Z,12.83
2019-04-23T10:58:38.351Z,11.97
2019-04-23T10:59:45.037Z,12.30
2019-04-23T11:00:59.927Z,12.23
2019-04-23T11:02:24.521Z,12.67
2019-04-23T11:03:37.995Z,12.43
2019-04-23T11:04:42.942Z,11.70
2019-04-23T11:05:37.660Z,11.67
2019-04-23T11:06:44.402Z,11.03
2019-04-23T11:07:41.708Z,11.80
2019-04-23T11:08:51.844Z,12.27
2019-04-23T11:10:05.169Z,12.43
2019-04-23T11:11:16.954Z,11.90
2019-04-23T11:12:31.942Z,12.43
2019-04-23T11:13:33.876Z,11.60
2019-04-23T11:14:43.930Z,11.97
2019-04-23T11:15:58.670Z,11.50
2019-04-23T11:16:57.196Z,11.63
2019-04-23T11:19:10.552Z,11.40
2019-04-23T11:20:25.450Z,12.67
2019-04-23T11:21:23.604Z,12.90
2019-04-23T11:23:39.246Z,12.47
2019-04-23T11:24:41.927Z,12.20
2019-04-23T11:25:44.311Z,11.87
2019-04-23T11:28:11.808Z,12.63
2019-04-23T11:29:12.731Z,11.47
2019-04-23T11:30:28.440Z,11.67
2019-04-23T11:31:30.865Z,10.83
2019-04-23T11:32:42.848Z,12.97
2019-04-23T11:33:46.352Z,12.43
2019-04-23T11:35:06.833Z,11.57
2019-04-23T11:38:35.391Z,12.57
2019-04-23T11:39:16.537Z,12.70
2019-04-23T11:40:22.934Z,12.33
2019-04-23T11:41:36.842Z,11.77
2019-04-23T11:42:47.191Z,12.57
2019-04-23T11:43:38.058Z,12.00
2019-04-23T11:44:49.533Z,12.10
2019-04-23T11:50:42.239Z,11.37
2019-04-23T11:51:53.986Z,11.77
2019-04-23T11:53:50.902Z,11.90
2019-04-23T11:54:53.250Z,12.90
2019-04-23T11:56:02.893Z,12.43
2019-04-23T11:58:23.745Z,11.73
2019-04-23T11:59:31.575Z,11.23
2019-04-23T12:00:34.911Z,11.20
2019-04-23T12:01:52.807Z,11.70
2019-04-23T12:03:01.692Z,11.57
2019-04-23T12:04:40.217Z,11.67
2019-04-23T12:06:12.154Z,11.80
2019-04-23T12:07:22.643Z,11.90
2019-04-23T12:09:18.583Z,11.40
2019-04-23T12:10:29.272Z,10.83
2019-04-23T12:12:44.818Z,11.40
2019-04-23T12:15:26.771Z,11.90
2019-04-23T12:16:39.778Z,12.03
2019-04-23T12:17:45.549Z,11.73
2019-04-23T12:19:12.823Z,12.07
2019-04-23T12:20:02.980Z,11.20
2019-04-23T12:21:12.865Z,11.23
2019-04-23T12:22:29.894Z,11.53
2019-04-23T12:23:32.042Z,11.87
2019-04-23T12:24:58.613Z,12.47
2019-04-23T12:27:00.997Z,11.60
2019-04-23T12:27:38.258Z,10.70
2019-04-23T12:29:06.230Z,10.60
2019-04-23T12:30:08.555Z,12.20
2019-04-23T12:31:16.208Z,11.60
2019-04-23T12:33:36.255Z,11.63
2019-04-23T12:34:46.837Z,12.03
2019-04-23T12:35:40.791Z,11.70
2019-04-23T12:36:56.946Z,10.70
2019-04-23T12:39:21.986Z,10.40
2019-04-23T12:41:42.112Z,10.27
2019-04-23T12:43:40.074Z,10.20
2019-04-23T12:45:05.267Z,10.87
2019-04-23T12:45:57.506Z,11.83
2019-04-23T12:47:17.265Z,10.53
2019-04-23T12:48:31.403Z,10.30
2019-04-23T12:51:43.259Z,10.93
2019-04-23T12:52:47.459Z,10.17
2019-04-23T12:53:45.490Z,10.27
2019-04-23T12:56:03.923Z,10.43
2019-04-23T12:57:25.775Z,9.93
2019-04-23T12:58:21.962Z,10.03
2019-04-23T12:59:30.877Z,10.47
2019-04-23T13:00:32.239Z,10.47
2019-04-23T13:01:49.023Z,10.60
2019-04-23T13:02:52.135Z,10.30
2019-04-23T13:03:51.038Z,10.40
2019-04-23T13:05:11.668Z,10.20
2019-04-23T13:06:10.088Z,10.67
2019-04-23T13:07:26.435Z,10.80
2019-04-23T13:08:33.391Z,10.40
2019-04-23T13:09:48.829Z,10.67
2019-04-23T13:11:51.688Z,10.23
2019-04-23T13:14:08.721Z,9.17
2019-04-23T13:15:15.739Z,9.83
2019-04-23T13:16:25.300Z,10.03
2019-04-23T13:20:51.674Z,9.10
2019-04-23T13:23:15.381Z,9.03
2019-04-23T13:24:48.927Z,9.20
2019-04-23T13:27:15.654Z,9.23
2019-04-23T13:28:14.092Z,8.57
2019-04-23T13:29:32.927Z,9.20
2019-04-23T13:30:37.501Z,9.17
2019-04-23T13:31:36.323Z,8.60
2019-04-23T13:34:11.032Z,8.73
2019-04-23T13:35:11.010Z,9.30
2019-04-23T13:36:29.040Z,9.63
2019-04-23T13:37:19.084Z,9.47
2019-04-23T13:38:28.269Z,9.30
2019-04-23T13:39:33.296Z,8.87
2019-04-23T13:40:39.512Z,8.37
2019-04-23T13:41:42.091Z,8.43
2019-04-23T13:42:52.436Z,7.80
2019-04-23T13:43:48.595Z,8.70
2019-04-23T13:46:13.284Z,8.87
2019-04-23T13:47:36.778Z,8.80
2019-04-23T13:48:20.049Z,9.03
2019-04-23T13:49:37.090Z,9.10
2019-04-23T13:51:47.155Z,9.47
2019-04-23T13:54:07.880Z,9.23
2019-04-23T13:55:09.400Z,8.90
2019-04-23T13:56:30.253Z,9.47
2019-04-23T13:58:32.604Z,9.57
2019-04-23T14:01:54.449Z,9.57
2019-04-23T14:03:03.965Z,9.67
2019-04-23T14:04:26.901Z,9.50
2019-04-23T14:05:33.015Z,9.10
2019-04-23T14:10:08.636Z,9.60
2019-04-23T14:11:10.682Z,8.83
2019-04-23T14:12:17.637Z,9.37
2019-04-23T14:13:37.272Z,9.53
2019-04-23T14:14:43.755Z,9.30
2019-04-23T14:15:45.727Z,9.17
2019-04-23T14:18:11.049Z,9.30
2019-04-23T14:20:07.183Z,9.50
2019-04-23T14:21:20.527Z,8.63
2019-04-23T14:22:46.238Z,8.93
2019-04-23T14:24:46.213Z,9.13
2019-04-23T14:25:50.647Z,9.23
2019-04-23T14:26:50.624Z,9.50
2019-04-23T14:28:08.070Z,9.80
2019-04-23T14:28:59.396Z,9.97
2019-04-23T14:30:21.792Z,9.60
2019-04-23T14:31:30.150Z,9.73
2019-04-23T14:32:29.343Z,9.27
2019-04-23T14:34:43.528Z,9.07
2019-04-23T14:35:45.415Z,9.37
2019-04-23T14:36:59.265Z,9.77
2019-04-23T14:38:15.629Z,9.50
2019-04-23T14:39:06.015Z,9.90
2019-04-23T14:40:26.699Z,10.00
2019-04-23T14:41:35.153Z,10.03
2019-04-23T14:42:50.864Z,9.40
2019-04-23T14:45:00.578Z,10.77
2019-04-23T14:46:27.951Z,10.53
2019-04-23T14:48:23.097Z,9.77
2019-04-23T14:50:51.953Z,9.77
2019-04-23T14:51:50.784Z,10.47
2019-04-23T14:53:06.767Z,9.60
2019-04-23T14:54:08.204Z,9.57
2019-04-23T14:56:30.208Z,10.00
2019-04-23T14:57:45.552Z,9.97
2019-04-23T14:58:50.826Z,10.10
2019-04-23T14:59:48.139Z,10.60
2019-04-23T15:01:07.502Z,10.70
2019-04-23T15:03:07.225Z,10.07
2019-04-23T15:04:10.858Z,11.57
2019-04-23T15:05:25.736Z,11.27
2019-04-23T15:06:41.124Z,11.93
2019-04-23T15:07:34.703Z,10.83
2019-04-23T15:08:50.191Z,10.50
2019-04-23T15:09:57.404Z,10.90
2019-04-23T15:12:11.973Z,9.90
2019-04-23T15:14:17.536Z,10.53
2019-04-23T15:16:31.690Z,11.03
2019-04-23T15:20:24.956Z,10.40
2019-04-23T15:22:42.417Z,10.97
2019-04-23T15:26:39.585Z,11.40
2019-04-23T15:28:06.981Z,11.13
2019-04-23T15:29:02.857Z,12.30
2019-04-23T15:30:17.673Z,11.53
2019-04-23T15:31:33.084Z,11.47
2019-04-23T15:33:55.346Z,11.70
2019-04-23T15:34:57.501Z,11.77
2019-04-23T15:36:21.757Z,11.17
2019-04-23T15:37:19.041Z,12.50
2019-04-23T15:38:33.871Z,11.27
2019-04-23T15:39:31.099Z,11.93
2019-04-23T15:40:34.440Z,10.87
2019-04-23T15:42:52.335Z,10.67
2019-04-23T15:43:57.528Z,10.20
2019-04-23T15:45:01.577Z,11.33
2019-04-23T15:46:11.411Z,11.20
2019-04-23T15:47:23.082Z,10.53
2019-04-23T15:48:26.041Z,10.67
2019-04-23T15:51:47.993Z,11.80
2019-04-23T15:52:53.079Z,11.83
2019-04-23T15:53:56.826Z,12.13
2019-04-23T15:55:03.704Z,11.57
2019-04-23T15:57:53.615Z,11.07
2019-04-23T15:58:28.130Z,10.73
2019-04-23T15:59:33.372Z,11.33
2019-04-23T16:00:39.735Z,11.23
2019-04-23T16:01:39.472Z,10.70
2019-04-23T16:02:25.054Z,11.53
2019-04-23T16:03:31.941Z,11.10
2019-04-23T16:04:37.872Z,11.63
2019-04-23T16:05:44.697Z,11.17
2019-04-23T16:06:49.927Z,12.10
2019-04-23T16:08:23.925Z,11.63
2019-04-23T16:09:21.685Z,12.30
2019-04-23T16:10:45.863Z,11.90
2019-04-23T16:11:51.766Z,11.57
2019-04-23T16:12:56.706Z,12.20
2019-04-23T16:15:07.817Z,12.13
2019-04-23T16:16:14.569Z,11.50
2019-04-23T16:17:21.257Z,11.60
2019-04-23T16:18:50.353Z,11.13
2019-04-23T16:22:18.560Z,11.80
2019-04-23T16:23:31.678Z,12.40
2019-04-23T16:24:48.500Z,12.77
2019-04-23T16:25:49.717Z,12.67
2019-04-23T16:26:55.826Z,11.87
2019-04-23T16:27:49.132Z,11.53
2019-04-23T16:30:16.871Z,11.83
2019-04-23T16:31:20.517Z,12.27
2019-04-23T16:32:27.741Z,12.17
2019-04-23T16:33:20.187Z,12.40
2019-04-23T16:34:38.116Z,14.27
2019-04-23T16:36:05.931Z,12.07
2019-04-23T16:37:08.512Z,12.00
2019-04-23T16:38:32.508Z,11.87
2019-04-23T16:39:16.279Z,12.17
2019-04-23T16:40:28.699Z,11.90
2019-04-23T16:41:34.513Z,11.03
2019-04-23T16:42:40.075Z,13.60
2019-04-23T16:43:48.717Z,13.00
2019-04-23T16:46:00.410Z,12.33
2019-04-23T16:47:12.870Z,12.67
2019-04-23T16:48:23.870Z,11.70
2019-04-23T16:51:34.350Z,12.60
2019-04-23T16:52:43.982Z,12.50
2019-04-23T16:53:46.369Z,13.13
2019-04-23T16:55:04.647Z,13.03
2019-04-23T16:56:13.073Z,12.10
2019-04-23T16:58:25.201Z,12.27
2019-04-23T16:59:24.236Z,14.13
2019-04-23T17:00:41.593Z,13.33
2019-04-23T17:01:45.601Z,12.63
2019-04-23T17:02:54.702Z,12.87
2019-04-23T17:03:56.408Z,13.47
2019-04-23T17:05:02.880Z,12.67
2019-04-23T17:06:10.074Z,13.47
2019-04-23T17:07:13.184Z,12.33
2019-04-23T17:08:42.301Z,12.80
2019-04-23T17:09:40.356Z,11.43
2019-04-23T17:10:43.020Z,11.80
2019-04-23T17:11:48.446Z,12.13
2019-04-23T17:12:54.773Z,11.77
2019-04-23T17:14:00.811Z,10.90
2019-04-23T17:16:17.627Z,11.30
2019-04-23T17:17:14.899Z,11.40
2019-04-23T17:23:00.589Z,11.50
2019-04-23T17:25:15.717Z,11.63
2019-04-23T17:26:20.515Z,11.90
2019-04-23T17:27:24.435Z,11.60
2019-04-23T17:28:31.362Z,11.77
2019-04-23T17:29:43.390Z,11.87
2019-04-23T17:30:51.825Z,11.60
2019-04-23T17:32:05.666Z,11.97
2019-04-23T17:34:30.895Z,11.70
2019-04-23T17:37:07.047Z,11.33
2019-04-23T17:38:07.218Z,12.73
2019-04-23T17:40:28.325Z,12.20
2019-04-23T17:42:18.251Z,12.00
2019-04-23T17:43:12.271Z,12.23
2019-04-23T17:44:40.617Z,11.37
2019-04-23T17:45:32.403Z,11.50
2019-04-23T17:46:43.183Z,11.90
2019-04-23T17:48:09.913Z,12.13
2019-04-23T17:49:16.926Z,11.53
2019-04-23T17:50:25.413Z,12.60
2019-04-23T17:51:24.322Z,11.97
2019-04-23T17:52:35.122Z,12.00
2019-04-23T17:53:38.293Z,11.90
2019-04-23T17:54:48.092Z,12.37
2019-04-23T17:58:23.326Z,12.07
2019-04-23T17:59:53.605Z,12.07
2019-04-23T18:01:11.026Z,12.57
2019-04-23T18:02:29.293Z,12.20
2019-04-23T18:03:34.720Z,11.93
2019-04-23T18:04:27.194Z,12.43
2019-04-23T18:05:24.834Z,12.23
2019-04-23T18:11:12.860Z,12.43
2019-04-23T18:12:21.624Z,13.13
2019-04-23T18:13:22.439Z,12.63
2019-04-23T18:14:18.184Z,13.10
2019-04-23T18:15:27.513Z,12.37
2019-04-23T18:17:48.805Z,12.23
2019-04-23T18:24:23.058Z,12.63
2019-04-23T18:26:55.096Z,13.17
2019-04-23T18:29:08.450Z,12.57
2019-04-23T18:30:15.735Z,12.87
2019-04-23T18:31:31.846Z,13.57
2019-04-23T18:32:57.624Z,13.17
2019-04-23T18:36:18.295Z,12.40
2019-04-23T18:38:41.652Z,13.83
2019-04-23T18:39:48.571Z,13.67
2019-04-23T18:42:11.720Z,13.17
2019-04-23T18:43:15.283Z,13.30
2019-04-23T18:44:24.841Z,13.90
2019-04-23T18:45:31.937Z,13.60
2019-04-23T18:47:45.831Z,13.83
2019-04-23T18:49:55.806Z,13.57
2019-04-23T18:52:14.598Z,14.67
2019-04-23T18:53:30.063Z,13.70
2019-04-23T18:54:21.859Z,13.87
2019-04-23T18:55:45.310Z,15.17
2019-04-23T18:56:58.317Z,14.07
2019-04-23T18:57:50.433Z,14.67
2019-04-23T19:02:49.350Z,14.47
2019-04-23T19:06:33.058Z,14.67
2019-04-23T19:09:16.208Z,14.53
2019-04-23T19:10:36.100Z,14.20
2019-04-23T19:12:08.746Z,14.20
2019-04-23T19:13:07.723Z,14.43
2019-04-23T19:14:18.270Z,15.17
2019-04-23T19:15:29.762Z,14.90
2019-04-23T19:18:41.599Z,14.00
2019-04-23T19:19:49.965Z,14.57
2019-04-23T19:21:00.670Z,14.30
2019-04-23T19:24:12.655Z,14.50